createdAt,value
2017-05-17T00:00:14.952Z,17.46
2017-05-17T00:00:55.465Z,17.38
2017-05-17T00:01:36.022Z,17.38
2017-05-17T00:02:17.496Z,17.49
2017-05-17T00:02:57.978Z,17.58
2017-05-17T00:03:38.474Z,17.56
2017-05-17T00:05:25.968Z,17.49
2017-05-17T00:06:06.466Z,17.38
2017-05-17T00:06:47.036Z,17.21
2017-05-17T00:07:27.467Z,17.31
2017-05-17T00:08:07.961Z,17.25
2017-05-17T00:08:48.456Z,17.23
2017-05-17T00:09:28.944Z,17.08
2017-05-17T00:10:09.439Z,17.18
2017-05-17T00:10:49.982Z,17.08
2017-05-17T00:11:30.474Z,17.14
2017-05-17T00:12:11.940Z,17.11
2017-05-17T00:12:52.430Z,17.12
2017-05-17T00:13:32.917Z,17.12
2017-05-17T00:14:13.413Z,17.12
2017-05-17T00:14:53.870Z,17.21
2017-05-17T00:15:34.370Z,17.08
2017-05-17T00:16:14.845Z,17.15
2017-05-17T00:16:55.336Z,17.08
2017-05-17T00:17:35.831Z,17.03
2017-05-17T00:18:16.332Z,17.14
2017-05-17T00:18:56.824Z,17.04
2017-05-17T00:19:37.297Z,17
2017-05-17T00:20:17.806Z,16.93
2017-05-17T00:20:58.262Z,16.91
2017-05-17T00:21:39.756Z,16.98
2017-05-17T00:22:20.262Z,16.96
2017-05-17T00:23:00.765Z,16.85
2017-05-17T00:23:41.259Z,16.88
2017-05-17T00:24:21.740Z,16.94
2017-05-17T00:25:02.282Z,16.88
2017-05-17T00:25:42.779Z,16.88
2017-05-17T00:26:23.270Z,16.93
2017-05-17T00:27:04.529Z,16.88
2017-05-17T00:27:45.654Z,16.73
2017-05-17T00:28:26.175Z,16.79
2017-05-17T00:29:06.696Z,16.81
2017-05-17T00:29:47.194Z,16.83
2017-05-17T00:30:27.686Z,16.81
2017-05-17T00:31:08.187Z,16.81
2017-05-17T00:31:48.719Z,16.83
2017-05-17T00:32:29.941Z,16.85
2017-05-17T00:33:11.363Z,16.93
2017-05-17T00:33:51.856Z,16.96
2017-05-17T00:34:32.323Z,16.89
2017-05-17T00:36:19.791Z,16.85
2017-05-17T00:37:00.263Z,16.83
2017-05-17T00:37:40.753Z,16.83
2017-05-17T00:38:21.858Z,16.79
2017-05-17T00:39:02.346Z,16.85
2017-05-17T00:39:43.494Z,16.7
2017-05-17T00:40:23.971Z,16.83
2017-05-17T00:41:04.471Z,16.7
2017-05-17T00:41:44.964Z,16.83
2017-05-17T00:42:25.450Z,16.85
2017-05-17T00:43:05.933Z,16.86
2017-05-17T00:43:46.414Z,16.79
2017-05-17T00:44:26.926Z,16.79
2017-05-17T00:45:07.375Z,16.82
2017-05-17T00:45:47.846Z,16.93
2017-05-17T00:47:40.375Z,16.94
2017-05-17T00:48:20.869Z,17.01
2017-05-17T00:49:01.938Z,16.98
2017-05-17T00:49:42.423Z,16.96
2017-05-17T00:50:22.920Z,17
2017-05-17T00:51:03.421Z,16.89
2017-05-17T00:51:44.770Z,16.83
2017-05-17T00:52:25.263Z,16.81
2017-05-17T00:53:07.266Z,16.83
2017-05-17T00:53:47.754Z,16.78
2017-05-17T00:54:28.240Z,16.71
2017-05-17T00:55:09.551Z,16.71
2017-05-17T00:55:50.085Z,16.64
2017-05-17T00:56:30.572Z,16.7
2017-05-17T00:57:11.065Z,16.7
2017-05-17T00:57:51.548Z,16.68
2017-05-17T00:58:33.848Z,16.75
2017-05-17T00:59:14.347Z,16.71
2017-05-17T00:59:54.828Z,16.63
2017-05-17T01:00:35.299Z,16.67
2017-05-17T01:01:15.775Z,16.76
2017-05-17T01:01:56.263Z,16.7
2017-05-17T01:02:36.745Z,16.7
2017-05-17T01:03:17.234Z,16.73
2017-05-17T01:03:57.735Z,16.82
2017-05-17T01:04:38.241Z,16.67
2017-05-17T01:05:19.492Z,16.88
2017-05-17T01:06:00.778Z,16.83
2017-05-17T01:06:41.266Z,16.82
2017-05-17T01:07:21.761Z,16.88
2017-05-17T01:08:02.253Z,16.85
2017-05-17T01:08:42.712Z,16.71
2017-05-17T01:09:23.864Z,16.7
2017-05-17T01:10:05.173Z,16.71
2017-05-17T01:10:45.699Z,16.7
2017-05-17T01:11:26.183Z,16.76
2017-05-17T01:12:06.675Z,16.79
2017-05-17T01:12:47.161Z,16.73
2017-05-17T01:13:28.273Z,16.82
2017-05-17T01:14:09.675Z,16.73
2017-05-17T01:14:50.164Z,16.79
2017-05-17T01:15:30.808Z,16.75
2017-05-17T01:16:12.175Z,16.75
2017-05-17T01:16:52.669Z,16.73
2017-05-17T01:17:33.174Z,16.82
2017-05-17T01:18:13.672Z,16.64
2017-05-17T01:18:54.172Z,16.79
2017-05-17T01:19:34.659Z,16.76
2017-05-17T01:20:15.318Z,16.73
2017-05-17T01:20:55.749Z,16.83
2017-05-17T01:23:08.573Z,16.71
2017-05-17T01:23:49.049Z,16.78
2017-05-17T01:24:29.534Z,16.71
2017-05-17T01:25:10.027Z,16.73
2017-05-17T01:25:50.637Z,16.78
2017-05-17T01:26:31.135Z,16.82
2017-05-17T01:27:11.608Z,16.85
2017-05-17T01:27:52.104Z,16.83
2017-05-17T01:28:32.605Z,16.82
2017-05-17T01:29:13.089Z,16.71
2017-05-17T01:29:54.315Z,16.79
2017-05-17T01:30:34.948Z,16.75
2017-05-17T01:31:15.448Z,16.78
2017-05-17T01:31:56.728Z,16.68
2017-05-17T01:32:37.216Z,16.67
2017-05-17T01:33:17.702Z,16.79
2017-05-17T01:33:58.198Z,16.68
2017-05-17T01:35:55.822Z,16.56
2017-05-17T01:36:36.324Z,16.52
2017-05-17T01:37:16.826Z,16.58
2017-05-17T01:37:57.355Z,16.56
2017-05-17T01:38:37.834Z,16.63
2017-05-17T01:39:18.332Z,16.5
2017-05-17T01:39:59.712Z,16.5
2017-05-17T01:40:40.941Z,16.49
2017-05-17T01:41:21.452Z,16.56
2017-05-17T01:42:01.955Z,16.53
2017-05-17T01:42:42.441Z,16.58
2017-05-17T01:43:23.514Z,16.57
2017-05-17T01:44:04.889Z,16.56
2017-05-17T01:44:45.380Z,16.53
2017-05-17T01:45:25.871Z,16.49
2017-05-17T01:46:06.371Z,16.5
2017-05-17T01:46:46.852Z,16.61
2017-05-17T01:47:27.331Z,16.64
2017-05-17T01:48:07.830Z,16.68
2017-05-17T01:48:48.320Z,16.64
2017-05-17T01:49:28.821Z,16.67
2017-05-17T01:50:09.309Z,16.66
2017-05-17T01:50:49.803Z,16.68
2017-05-17T01:51:30.291Z,16.61
2017-05-17T01:52:10.775Z,16.7
2017-05-17T01:52:52.014Z,16.66
2017-05-17T01:53:32.518Z,16.67
2017-05-17T01:54:13.009Z,16.68
2017-05-17T01:54:53.512Z,16.66
2017-05-17T01:55:34.031Z,16.56
2017-05-17T01:56:14.523Z,16.53
2017-05-17T01:56:55.019Z,16.52
2017-05-17T01:57:35.475Z,16.56
2017-05-17T01:58:15.969Z,16.57
2017-05-17T01:58:56.459Z,16.58
2017-05-17T01:59:37.716Z,16.52
2017-05-17T02:00:18.328Z,16.57
2017-05-17T02:00:59.297Z,16.61
2017-05-17T02:01:39.796Z,16.58
2017-05-17T02:02:20.298Z,16.43
2017-05-17T02:03:00.771Z,16.43
2017-05-17T02:03:41.251Z,16.52
2017-05-17T02:04:21.735Z,16.49
2017-05-17T02:05:02.250Z,16.56
2017-05-17T02:05:42.773Z,16.42
2017-05-17T02:06:23.259Z,16.43
2017-05-17T02:07:03.769Z,16.5
2017-05-17T02:07:44.277Z,16.48
2017-05-17T02:08:24.754Z,16.45
2017-05-17T02:09:06.029Z,16.49
2017-05-17T02:09:46.524Z,16.52
2017-05-17T02:10:27.031Z,16.46
2017-05-17T02:11:07.506Z,16.45
2017-05-17T02:11:48.000Z,16.31
2017-05-17T02:12:28.463Z,16.28
2017-05-17T02:13:08.897Z,16.41
2017-05-17T02:13:49.372Z,16.3
2017-05-17T02:14:29.869Z,16.34
2017-05-17T02:15:10.353Z,16.3
2017-05-17T02:15:50.862Z,16.39
2017-05-17T02:16:31.383Z,16.35
2017-05-17T02:17:11.865Z,16.31
2017-05-17T02:17:52.351Z,16.3
2017-05-17T02:18:32.850Z,16.34
2017-05-17T02:19:13.351Z,16.31
2017-05-17T02:19:53.846Z,16.27
2017-05-17T02:20:34.380Z,16.31
2017-05-17T02:21:14.872Z,16.23
2017-05-17T02:21:56.227Z,16.15
2017-05-17T02:22:36.728Z,16.21
2017-05-17T02:23:17.224Z,16.17
2017-05-17T02:23:57.716Z,16.3
2017-05-17T02:24:38.238Z,16.14
2017-05-17T02:25:18.854Z,16.27
2017-05-17T02:25:59.890Z,16.14
2017-05-17T02:26:40.401Z,16.12
2017-05-17T02:27:20.897Z,16.11
2017-05-17T02:28:01.899Z,16.07
2017-05-17T02:28:42.392Z,16.09
2017-05-17T02:29:22.883Z,16.15
2017-05-17T02:30:03.385Z,16.27
2017-05-17T02:30:43.919Z,16.23
2017-05-17T02:31:24.436Z,16.12
2017-05-17T02:32:04.922Z,16.11
2017-05-17T02:32:45.424Z,16.05
2017-05-17T02:33:25.905Z,16.05
2017-05-17T02:34:06.403Z,16.12
2017-05-17T02:36:19.135Z,16.08
2017-05-17T02:37:00.520Z,16.01
2017-05-17T02:37:41.016Z,15.86
2017-05-17T02:38:21.507Z,15.94
2017-05-17T02:39:02.007Z,15.97
2017-05-17T02:39:42.475Z,15.93
2017-05-17T02:40:22.978Z,15.89
2017-05-17T02:41:03.473Z,15.93
2017-05-17T02:41:43.988Z,15.89
2017-05-17T02:42:25.181Z,15.76
2017-05-17T02:43:05.682Z,15.89
2017-05-17T02:43:46.695Z,15.87
2017-05-17T02:44:27.684Z,15.94
2017-05-17T02:45:08.180Z,15.9
2017-05-17T02:45:48.681Z,15.96
2017-05-17T02:46:29.167Z,15.93
2017-05-17T02:47:09.657Z,15.84
2017-05-17T02:49:07.255Z,16.01
2017-05-17T02:49:47.758Z,15.9
2017-05-17T02:50:28.256Z,15.94
2017-05-17T02:51:09.457Z,16
2017-05-17T02:51:50.740Z,16.01
2017-05-17T02:52:31.266Z,16.02
2017-05-17T02:53:11.773Z,16.12
2017-05-17T02:53:52.257Z,16.04
2017-05-17T02:54:32.746Z,16.05
2017-05-17T02:55:13.236Z,16.05
2017-05-17T02:55:56.153Z,16.05
2017-05-17T02:56:36.645Z,16
2017-05-17T02:57:17.138Z,15.94
2017-05-17T02:57:57.635Z,16
2017-05-17T02:58:38.123Z,15.94
2017-05-17T02:59:18.669Z,15.94
2017-05-17T02:59:59.100Z,15.89
2017-05-17T03:00:39.676Z,16.01
2017-05-17T03:01:20.173Z,15.9
2017-05-17T03:02:00.674Z,15.94
2017-05-17T03:02:41.182Z,15.93
2017-05-17T03:03:21.709Z,15.86
2017-05-17T03:04:02.211Z,15.83
2017-05-17T03:04:42.703Z,15.83
2017-05-17T03:05:23.203Z,15.87
2017-05-17T03:06:03.703Z,15.8
2017-05-17T03:06:44.185Z,15.78
2017-05-17T03:07:24.688Z,15.8
2017-05-17T03:08:05.198Z,15.68
2017-05-17T03:08:45.693Z,15.74
2017-05-17T03:09:26.187Z,15.83
2017-05-17T03:10:06.668Z,15.76
2017-05-17T03:10:47.190Z,15.86
2017-05-17T03:11:28.653Z,15.72
2017-05-17T03:12:09.138Z,15.76
2017-05-17T03:12:49.623Z,15.69
2017-05-17T03:13:30.120Z,15.72
2017-05-17T03:14:11.457Z,15.78
2017-05-17T03:14:51.962Z,15.64
2017-05-17T03:15:32.479Z,15.78
2017-05-17T03:16:12.950Z,15.72
2017-05-17T03:16:53.426Z,15.8
2017-05-17T03:18:45.972Z,15.69
2017-05-17T03:19:26.462Z,15.78
2017-05-17T03:20:06.949Z,15.6
2017-05-17T03:20:47.465Z,15.64
2017-05-17T03:21:27.963Z,15.62
2017-05-17T03:22:08.440Z,15.67
2017-05-17T03:22:48.917Z,15.59
2017-05-17T03:23:30.265Z,15.75
2017-05-17T03:24:12.263Z,15.75
2017-05-17T03:24:52.752Z,15.75
2017-05-17T03:25:33.300Z,15.72
2017-05-17T03:26:13.735Z,15.76
2017-05-17T03:26:54.276Z,15.86
2017-05-17T03:27:34.694Z,15.72
2017-05-17T03:28:15.156Z,15.84
2017-05-17T03:28:55.646Z,15.78
2017-05-17T03:29:36.128Z,15.74
2017-05-17T03:30:17.616Z,15.82
2017-05-17T03:30:58.079Z,15.74
2017-05-17T03:31:38.558Z,15.74
2017-05-17T03:32:19.059Z,15.62
2017-05-17T03:32:59.553Z,15.74
2017-05-17T03:33:40.041Z,15.72
2017-05-17T03:34:21.036Z,15.76
2017-05-17T03:35:01.534Z,15.71
2017-05-17T03:35:42.041Z,15.74
2017-05-17T03:36:22.526Z,15.76
2017-05-17T03:37:03.011Z,15.68
2017-05-17T03:37:43.508Z,15.76
2017-05-17T03:38:24.007Z,15.72
2017-05-17T03:39:04.512Z,15.75
2017-05-17T03:39:45.015Z,15.64
2017-05-17T03:40:25.505Z,15.65
2017-05-17T03:41:05.988Z,15.64
2017-05-17T03:41:46.475Z,15.62
2017-05-17T03:42:26.971Z,15.62
2017-05-17T03:43:07.464Z,15.65
2017-05-17T03:43:47.949Z,15.6
2017-05-17T03:44:28.431Z,15.6
2017-05-17T03:45:08.916Z,15.65
2017-05-17T03:45:49.398Z,15.67
2017-05-17T03:46:29.883Z,15.62
2017-05-17T03:47:10.347Z,15.5
2017-05-17T03:47:50.838Z,15.47
2017-05-17T03:48:31.298Z,15.59
2017-05-17T03:50:08.638Z,15.64
2017-05-17T03:50:49.108Z,15.56
2017-05-17T03:51:30.137Z,15.62
2017-05-17T03:52:10.659Z,15.6
2017-05-17T03:52:51.174Z,15.5
2017-05-17T03:53:31.665Z,15.44
2017-05-17T03:54:12.935Z,15.59
2017-05-17T03:54:53.435Z,15.53
2017-05-17T03:55:33.956Z,15.53
2017-05-17T03:56:14.451Z,15.51
2017-05-17T03:56:54.941Z,15.6
2017-05-17T03:57:35.436Z,15.56
2017-05-17T03:58:15.914Z,15.6
2017-05-17T03:58:56.930Z,15.54
2017-05-17T03:59:37.428Z,15.54
2017-05-17T04:00:17.927Z,15.51
2017-05-17T04:00:58.453Z,15.57
2017-05-17T04:01:38.904Z,15.5
2017-05-17T04:02:19.366Z,15.44
2017-05-17T04:02:59.800Z,15.53
2017-05-17T04:03:40.243Z,15.5
2017-05-17T04:04:20.739Z,15.54
2017-05-17T04:05:01.819Z,15.47
2017-05-17T04:05:42.827Z,15.56
2017-05-17T04:06:23.295Z,15.54
2017-05-17T04:07:03.743Z,15.62
2017-05-17T04:07:44.196Z,15.5
2017-05-17T04:08:24.631Z,15.57
2017-05-17T04:10:12.071Z,15.64
2017-05-17T04:10:52.611Z,15.65
2017-05-17T04:11:33.065Z,15.6
2017-05-17T04:12:13.507Z,15.62
2017-05-17T04:12:53.952Z,15.54
2017-05-17T04:13:34.415Z,15.54
2017-05-17T04:15:26.991Z,15.65
2017-05-17T04:16:07.424Z,15.56
2017-05-17T04:16:47.902Z,15.64
2017-05-17T04:17:28.388Z,15.53
2017-05-17T04:18:08.877Z,15.53
2017-05-17T04:18:49.368Z,15.65
2017-05-17T04:19:29.841Z,15.6
2017-05-17T04:20:10.301Z,15.62
2017-05-17T04:20:50.798Z,15.65
2017-05-17T04:21:31.288Z,15.57
2017-05-17T04:22:11.763Z,15.64
2017-05-17T04:22:52.236Z,15.57
2017-05-17T04:23:32.714Z,15.59
2017-05-17T04:24:13.225Z,15.65
2017-05-17T04:24:53.691Z,15.65
2017-05-17T04:25:34.181Z,15.65
2017-05-17T04:26:14.662Z,15.57
2017-05-17T04:26:55.152Z,15.68
2017-05-17T04:27:35.641Z,15.67
2017-05-17T04:28:16.674Z,15.65
2017-05-17T04:28:57.187Z,15.65
2017-05-17T04:29:37.671Z,15.64
2017-05-17T04:30:18.255Z,15.64
2017-05-17T04:30:58.677Z,15.68
2017-05-17T04:31:40.166Z,15.71
2017-05-17T04:32:20.645Z,15.67
2017-05-17T04:33:01.128Z,15.75
2017-05-17T04:33:41.586Z,15.68
2017-05-17T04:34:22.045Z,15.82
2017-05-17T04:35:02.504Z,15.78
2017-05-17T04:35:43.030Z,15.84
2017-05-17T04:36:23.537Z,15.83
2017-05-17T04:37:04.034Z,15.82
2017-05-17T04:37:44.507Z,15.83
2017-05-17T04:38:25.063Z,15.83
2017-05-17T04:39:06.143Z,15.86
2017-05-17T04:39:46.620Z,15.86
2017-05-17T04:40:27.126Z,15.84
2017-05-17T04:42:14.583Z,15.93
2017-05-17T04:42:55.063Z,15.92
2017-05-17T04:43:35.561Z,15.89
2017-05-17T04:44:16.632Z,16
2017-05-17T04:45:53.987Z,16.09
2017-05-17T04:46:35.159Z,16.2
2017-05-17T04:47:16.179Z,16.38
2017-05-17T04:47:56.655Z,16.35
2017-05-17T04:48:37.139Z,16.52
2017-05-17T04:49:17.667Z,16.5
2017-05-17T04:49:58.156Z,16.57
2017-05-17T04:50:38.681Z,16.71
2017-05-17T04:51:19.183Z,16.78
2017-05-17T04:51:59.689Z,16.89
2017-05-17T04:52:40.164Z,17.04
2017-05-17T04:53:20.647Z,17.12
2017-05-17T04:54:01.139Z,17.31
2017-05-17T04:54:42.262Z,17.41
2017-05-17T04:55:22.758Z,17.37
2017-05-17T04:56:03.259Z,17.44
2017-05-17T04:56:43.742Z,17.46
2017-05-17T04:58:56.515Z,17.56
2017-05-17T04:59:37.022Z,17.63
2017-05-17T05:00:17.510Z,17.79
2017-05-17T05:00:58.038Z,17.97
2017-05-17T05:01:38.518Z,17.87
2017-05-17T05:02:19.015Z,17.96
2017-05-17T05:02:59.517Z,17.89
2017-05-17T05:03:40.001Z,18.03
2017-05-17T05:04:20.495Z,17.99
2017-05-17T05:05:00.987Z,18.11
2017-05-17T05:05:41.588Z,18.12
2017-05-17T05:06:22.076Z,18.21
2017-05-17T05:07:02.592Z,18.2
2017-05-17T05:07:43.056Z,18.14
2017-05-17T05:08:23.535Z,18.08
2017-05-17T05:09:04.010Z,18.27
2017-05-17T05:09:44.501Z,18.35
2017-05-17T05:10:24.984Z,18.48
2017-05-17T05:11:05.452Z,18.5
2017-05-17T05:11:45.921Z,18.63
2017-05-17T05:12:26.411Z,18.65
2017-05-17T05:13:06.913Z,18.7
2017-05-17T05:13:47.400Z,18.78
2017-05-17T05:15:34.876Z,19.08
2017-05-17T05:16:15.370Z,19.13
2017-05-17T05:16:55.827Z,19.19
2017-05-17T05:17:36.366Z,19.37
2017-05-17T05:18:16.860Z,19.31
2017-05-17T05:18:57.347Z,19.33
2017-05-17T05:19:37.828Z,19.61
2017-05-17T05:20:18.336Z,19.63
2017-05-17T05:20:58.842Z,19.77
2017-05-17T05:21:39.343Z,19.55
2017-05-17T05:22:19.825Z,19.55
2017-05-17T05:23:00.310Z,19.56
2017-05-17T05:23:40.789Z,19.66
2017-05-17T05:24:21.299Z,19.47
2017-05-17T05:25:01.792Z,19.33
2017-05-17T05:25:42.330Z,19.55
2017-05-17T05:26:22.811Z,19.68
2017-05-17T05:27:03.289Z,19.86
2017-05-17T05:27:43.780Z,19.95
2017-05-17T05:28:24.288Z,19.96
2017-05-17T05:29:04.787Z,19.73
2017-05-17T05:29:45.301Z,19.4
2017-05-17T05:30:25.749Z,19.56
2017-05-17T05:31:06.265Z,19.63
2017-05-17T05:31:46.754Z,19.91
2017-05-17T05:32:27.245Z,20.08
2017-05-17T05:33:07.744Z,20.05
2017-05-17T05:33:48.234Z,20.06
2017-05-17T05:34:28.733Z,19.88
2017-05-17T05:35:09.221Z,19.96
2017-05-17T05:35:49.714Z,19.87
2017-05-17T05:36:30.230Z,19.99
2017-05-17T05:37:11.562Z,20.18
2017-05-17T05:37:52.041Z,20.05
2017-05-17T05:38:32.532Z,20.11
2017-05-17T05:39:13.683Z,20.23
2017-05-17T05:39:54.170Z,20.32
2017-05-17T05:40:34.685Z,20.42
2017-05-17T05:41:15.173Z,20.29
2017-05-17T05:41:55.690Z,20.42
2017-05-17T05:42:36.172Z,20.35
2017-05-17T05:43:16.667Z,20.13
2017-05-17T05:43:57.175Z,20.32
2017-05-17T05:44:37.663Z,20.21
2017-05-17T05:45:18.236Z,20.05
2017-05-17T05:45:58.682Z,20.23
2017-05-17T05:46:39.948Z,20.41
2017-05-17T05:47:20.464Z,20.52
2017-05-17T05:48:00.976Z,20.57
2017-05-17T05:48:41.501Z,20.61
2017-05-17T05:49:22.022Z,20.89
2017-05-17T05:50:02.498Z,20.8
2017-05-17T05:50:43.017Z,20.66
2017-05-17T05:51:23.498Z,20.69
2017-05-17T05:52:03.995Z,20.62
2017-05-17T05:52:44.496Z,20.69
2017-05-17T05:53:24.979Z,20.69
2017-05-17T05:54:05.457Z,20.8
2017-05-17T05:54:45.944Z,20.89
2017-05-17T05:55:26.411Z,20.79
2017-05-17T05:56:06.920Z,21.16
2017-05-17T05:56:47.393Z,21.19
2017-05-17T05:57:28.686Z,21.16
2017-05-17T05:58:09.860Z,21.47
2017-05-17T05:58:50.353Z,21.13
2017-05-17T05:59:31.463Z,21.43
2017-05-17T06:01:44.246Z,22.2
2017-05-17T06:02:24.730Z,21.98
2017-05-17T06:03:05.217Z,22.31
2017-05-17T06:03:45.716Z,22.2
2017-05-17T06:04:26.218Z,22.05
2017-05-17T06:05:06.692Z,22.18
2017-05-17T06:05:47.202Z,22.07
2017-05-17T06:06:27.705Z,22.33
2017-05-17T06:07:08.218Z,22.35
2017-05-17T06:07:48.707Z,22.55
2017-05-17T06:08:29.188Z,22.28
2017-05-17T06:09:09.679Z,22.43
2017-05-17T06:09:50.137Z,22.62
2017-05-17T06:10:30.703Z,22.77
2017-05-17T06:11:11.148Z,22.91
2017-05-17T06:11:51.594Z,22.55
2017-05-17T06:13:29.028Z,23.05
2017-05-17T06:14:09.480Z,23.39
2017-05-17T06:14:49.994Z,23.61
2017-05-17T06:15:30.492Z,23.76
2017-05-17T06:16:10.988Z,23.97
2017-05-17T06:16:52.335Z,24.1
2017-05-17T06:17:32.825Z,24.45
2017-05-17T06:19:20.327Z,24.42
2017-05-17T06:20:00.805Z,24.34
2017-05-17T06:20:41.349Z,24.34
2017-05-17T06:21:21.845Z,24.57
2017-05-17T06:22:02.329Z,25.06
2017-05-17T06:22:42.862Z,24.98
2017-05-17T06:23:23.364Z,24.67
2017-05-17T06:24:03.863Z,24.45
2017-05-17T06:24:44.379Z,24.8
2017-05-17T06:25:24.888Z,24.83
2017-05-17T06:26:05.388Z,24.58
2017-05-17T06:26:45.894Z,24.81
2017-05-17T06:27:26.409Z,24.93
2017-05-17T06:28:07.801Z,25.21
2017-05-17T06:28:48.352Z,25.52
2017-05-17T06:29:28.865Z,25.75
2017-05-17T06:30:09.372Z,25.97
2017-05-17T06:30:49.901Z,25.9
2017-05-17T06:31:30.427Z,25.69
2017-05-17T06:32:10.927Z,25.88
2017-05-17T06:32:51.426Z,25.94
2017-05-17T06:33:31.915Z,25.51
2017-05-17T06:34:12.403Z,25.33
2017-05-17T06:34:52.902Z,25.5
2017-05-17T06:35:33.395Z,25.6
2017-05-17T06:36:13.893Z,25.7
2017-05-17T06:36:54.436Z,25.98
2017-05-17T06:37:35.810Z,26.23
2017-05-17T06:38:16.291Z,26.43
2017-05-17T06:38:56.838Z,26.66
2017-05-17T06:39:37.363Z,27.04
2017-05-17T06:40:17.866Z,27.36
2017-05-17T06:40:58.358Z,27.25
2017-05-17T06:41:38.849Z,27.37
2017-05-17T06:42:19.349Z,27.22
2017-05-17T06:42:59.863Z,27.36
2017-05-17T06:43:40.366Z,27.72
2017-05-17T06:44:20.879Z,27.44
2017-05-17T06:45:01.443Z,27.31
2017-05-17T06:45:41.934Z,27.21
2017-05-17T06:46:22.444Z,27.57
2017-05-17T06:47:02.936Z,27.97
2017-05-17T06:47:43.450Z,27.51
2017-05-17T06:48:23.932Z,27.99
2017-05-17T06:49:04.431Z,28.31
2017-05-17T06:49:44.939Z,28.83
2017-05-17T06:50:25.417Z,28.98
2017-05-17T06:51:05.908Z,28.64
2017-05-17T06:51:46.409Z,28.66
2017-05-17T06:52:26.892Z,29
2017-05-17T06:53:07.386Z,28.46
2017-05-17T06:53:47.873Z,28.68
2017-05-17T06:54:28.401Z,29.05
2017-05-17T06:55:09.803Z,29.15
2017-05-17T06:55:50.320Z,28.71
2017-05-17T06:56:33.115Z,29.24
2017-05-17T06:57:13.617Z,29.24
2017-05-17T06:57:54.125Z,29.21
2017-05-17T06:58:34.635Z,28.44
2017-05-17T06:59:16.012Z,28.29
2017-05-17T06:59:56.514Z,28.8
2017-05-17T07:00:36.995Z,28.98
2017-05-17T07:01:17.493Z,29.23
2017-05-17T07:01:58.808Z,28.9
2017-05-17T07:02:39.300Z,28.98
2017-05-17T07:03:19.791Z,29.02
2017-05-17T07:04:00.283Z,28.9
2017-05-17T07:04:40.878Z,28.98
2017-05-17T07:05:21.990Z,28.98
2017-05-17T07:06:02.604Z,28.98
2017-05-17T07:07:50.298Z,28.98
2017-05-17T07:08:30.823Z,29.21
2017-05-17T07:09:11.322Z,29.37
2017-05-17T07:09:52.438Z,29.06
2017-05-17T07:10:32.942Z,28.64
2017-05-17T07:11:13.439Z,28.88
2017-05-17T07:11:53.919Z,29.11
2017-05-17T07:12:34.440Z,29.19
2017-05-17T07:13:14.863Z,29.21
2017-05-17T07:13:55.471Z,28.56
2017-05-17T07:14:35.977Z,28.58
2017-05-17T07:16:13.423Z,29.21
2017-05-17T07:16:53.938Z,29.18
2017-05-17T07:17:34.441Z,28.89
2017-05-17T07:18:14.987Z,28.9
2017-05-17T07:18:55.520Z,28.68
2017-05-17T07:19:36.029Z,29.12
2017-05-17T07:20:16.521Z,28.81
2017-05-17T07:20:57.023Z,29.33
2017-05-17T07:21:37.532Z,29.23
2017-05-17T07:22:18.513Z,29.26
2017-05-17T07:22:59.024Z,28.92
2017-05-17T07:23:39.517Z,28.92
2017-05-17T07:24:20.052Z,29.24
2017-05-17T07:25:00.577Z,29.82
2017-05-17T07:25:41.731Z,29.31
2017-05-17T07:26:22.242Z,29.11
2017-05-17T07:27:02.762Z,29.43
2017-05-17T07:27:43.251Z,29.64
2017-05-17T07:28:23.784Z,30.08
2017-05-17T07:29:04.325Z,30.65
2017-05-17T07:29:44.801Z,30.99
2017-05-17T07:30:25.335Z,30.97
2017-05-17T07:31:05.849Z,31.34
2017-05-17T07:31:46.466Z,31.47
2017-05-17T07:32:26.949Z,31.57
2017-05-17T07:33:07.470Z,31.32
2017-05-17T07:33:47.997Z,29.8
2017-05-17T07:34:28.489Z,29.6
2017-05-17T07:35:08.998Z,29.7
2017-05-17T07:35:49.485Z,29.78
2017-05-17T07:36:30.022Z,29.73
2017-05-17T07:37:10.999Z,29.82
2017-05-17T07:37:51.501Z,30.07
2017-05-17T07:38:31.994Z,29.95
2017-05-17T07:39:12.487Z,30.04
2017-05-17T07:39:53.023Z,30.29
2017-05-17T07:40:33.525Z,30.69
2017-05-17T07:41:14.095Z,30.64
2017-05-17T07:41:54.620Z,31.25
2017-05-17T07:43:52.226Z,30.6
2017-05-17T07:44:32.706Z,30.86
2017-05-17T07:45:13.878Z,31.06
2017-05-17T07:45:54.978Z,31.25
2017-05-17T07:46:35.505Z,30.91
2017-05-17T07:47:15.998Z,31.68
2017-05-17T07:47:56.493Z,32
2017-05-17T07:48:37.019Z,31.95
2017-05-17T07:49:17.554Z,32.01
2017-05-17T07:49:58.056Z,32.38
2017-05-17T07:50:38.583Z,32.32
2017-05-17T07:51:19.052Z,32.21
2017-05-17T07:51:59.523Z,32.21
2017-05-17T07:52:40.688Z,32.37
2017-05-17T07:53:21.175Z,32.23
2017-05-17T07:54:01.775Z,31.76
2017-05-17T07:54:42.297Z,31.99
2017-05-17T07:55:22.806Z,31.47
2017-05-17T07:56:03.371Z,30.98
2017-05-17T07:56:44.589Z,30.88
2017-05-17T07:57:25.106Z,30.77
2017-05-17T07:58:05.761Z,29.95
2017-05-17T08:00:18.518Z,30.47
2017-05-17T08:00:58.971Z,30.91
2017-05-17T08:01:39.474Z,31.43
2017-05-17T08:02:20.663Z,31.62
2017-05-17T08:03:01.144Z,32.14
2017-05-17T08:03:41.664Z,32.47
2017-05-17T08:04:22.198Z,32.51
2017-05-17T08:05:02.655Z,32.08
2017-05-17T08:05:43.130Z,32.03
2017-05-17T08:06:23.667Z,32.59
2017-05-17T08:07:04.139Z,31.84
2017-05-17T08:07:44.655Z,32.57
2017-05-17T08:08:25.143Z,33.21
2017-05-17T08:09:05.649Z,33.72
2017-05-17T08:09:46.106Z,33.94
2017-05-17T08:10:26.630Z,33.12
2017-05-17T08:11:07.090Z,33.22
2017-05-17T08:11:47.581Z,33.82
2017-05-17T08:14:00.374Z,32.62
2017-05-17T08:14:40.819Z,33.21
2017-05-17T08:15:21.317Z,33.39
2017-05-17T08:16:01.811Z,34.25
2017-05-17T08:16:42.306Z,34.65
2017-05-17T08:17:22.793Z,34.53
2017-05-17T08:18:03.253Z,34.4
2017-05-17T08:20:17.358Z,33.06
2017-05-17T08:20:57.821Z,33.53
2017-05-17T08:21:38.309Z,33.28
2017-05-17T08:22:18.868Z,32.94
2017-05-17T08:22:59.381Z,33.21
2017-05-17T08:23:39.833Z,33.19
2017-05-17T08:24:21.213Z,33.26
2017-05-17T08:26:18.865Z,33.72
2017-05-17T08:27:00.323Z,33.76
2017-05-17T08:27:40.822Z,34.21
2017-05-17T08:28:21.341Z,34.42
2017-05-17T08:29:01.893Z,33.78
2017-05-17T08:29:43.326Z,34.28
2017-05-17T08:30:23.844Z,34.35
2017-05-17T08:31:04.370Z,34.46
2017-05-17T08:31:44.881Z,34.54
2017-05-17T08:32:25.366Z,34.72
2017-05-17T08:33:05.936Z,35.04
2017-05-17T08:33:46.422Z,34.49
2017-05-17T08:34:26.937Z,34.59
2017-05-17T08:35:07.433Z,34.65
2017-05-17T08:35:47.946Z,34.73
2017-05-17T08:36:28.424Z,34.5
2017-05-17T08:37:08.924Z,34.35
2017-05-17T08:37:49.436Z,35.03
2017-05-17T08:38:29.918Z,34.27
2017-05-17T08:39:10.452Z,34.17
2017-05-17T08:39:50.982Z,33.84
2017-05-17T08:40:31.477Z,34.37
2017-05-17T08:41:12.647Z,34.53
2017-05-17T08:41:53.130Z,34.28
2017-05-17T08:42:33.666Z,34.52
2017-05-17T08:43:14.156Z,34.15
2017-05-17T08:43:55.258Z,33.21
2017-05-17T08:44:36.654Z,32.87
2017-05-17T08:45:17.141Z,34.12
2017-05-17T08:45:57.655Z,34.78
2017-05-17T08:46:38.934Z,35.38
2017-05-17T08:47:19.426Z,35.58
2017-05-17T08:47:59.996Z,35
2017-05-17T08:48:40.638Z,34.78
2017-05-17T08:49:21.151Z,35.26
2017-05-17T08:50:01.830Z,35.16
2017-05-17T08:50:42.652Z,35.16
2017-05-17T08:51:23.584Z,35.25
2017-05-17T08:52:05.194Z,35.81
2017-05-17T08:52:45.970Z,35.87
2017-05-17T08:53:26.566Z,35.7
2017-05-17T08:54:07.083Z,35.85
2017-05-17T08:54:47.628Z,35.94
2017-05-17T08:55:28.116Z,36.22
2017-05-17T08:56:08.612Z,36.65
2017-05-17T08:56:49.127Z,36.57
2017-05-17T08:57:29.635Z,37.09
2017-05-17T08:58:10.199Z,36.84
2017-05-17T08:58:52.264Z,36.98
2017-05-17T08:59:32.810Z,37.43
2017-05-17T09:00:14.088Z,37.18
2017-05-17T09:00:54.600Z,37.94
2017-05-17T09:01:35.093Z,37.7
2017-05-17T09:02:15.608Z,36.88
2017-05-17T09:02:57.072Z,37.51
2017-05-17T09:03:37.615Z,36.43
2017-05-17T09:04:18.136Z,37.09
2017-05-17T09:04:58.681Z,37.07
2017-05-17T09:05:39.163Z,37.74
2017-05-17T09:06:19.674Z,37.75
2017-05-17T09:07:00.194Z,37.57
2017-05-17T09:07:40.774Z,37.66
2017-05-17T09:08:21.269Z,37.88
2017-05-17T09:09:01.786Z,38.49
2017-05-17T09:09:42.298Z,37.69
2017-05-17T09:10:22.843Z,36.9
2017-05-17T09:11:03.333Z,36.68
2017-05-17T09:11:43.833Z,35.4
2017-05-17T09:12:24.332Z,35.63
2017-05-17T09:13:04.825Z,35.89
2017-05-17T09:13:45.387Z,35.85
2017-05-17T09:14:25.824Z,35.74
2017-05-17T09:15:06.432Z,35.92
2017-05-17T09:15:46.880Z,35.25